Time;durP1;ratioP1;P1;durP2;ratioP2;P2;SDS_P1;SDS_P2;PMS_P1;PMS_P2;Temp;Humidity;BMP_temperature;BMP_pressure;BME280_temperature;BME280_humidity;BME280_pressure;Samples;Min_cycle;Max_cycle;Signal;HPM_P1;HPM_P2
2021/08/06 00:00:44;;;;;;;4.45;3.50;;;;;;;15.70;97.58;99297.67;1697562;82;25784;-79
2021/08/06 00:03:13;;;;;;;4.08;3.70;;;;;;;15.68;97.52;99298.45;1718482;81;26192;-79
2021/08/06 00:05:42;;;;;;;6.45;3.70;;;;;;;15.68;98.02;99282.26;1778040;80;28339;-80
2021/08/06 00:08:09;;;;;;;3.92;3.17;;;;;;;15.66;98.99;99276.83;1694598;81;25967;-79
2021/08/06 00:10:36;;;;;;;5.65;3.58;;;;;;;15.66;98.46;99286.27;1714253;81;25794;-80
2021/08/06 00:13:03;;;;;;;4.92;3.50;;;;;;;15.66;98.48;99291.14;1713902;82;25911;-80
2021/08/06 00:15:30;;;;;;;5.58;4.30;;;;;;;15.66;98.87;99270.90;1747314;81;25832;-80
2021/08/06 00:17:57;;;;;;;4.72;3.42;;;;;;;15.65;99.95;99268.46;1689526;82;27107;-79
2021/08/06 00:20:24;;;;;;;5.15;3.33;;;;;;;15.66;98.97;99284.92;1695031;80;25844;-79
2021/08/06 00:22:51;;;;;;;4.30;3.05;;;;;;;15.66;98.82;99286.27;1724992;81;26046;-80
2021/08/06 00:25:19;;;;;;;4.50;3.80;;;;;;;15.65;99.68;99277.38;1737528;82;25873;-79
2021/08/06 00:27:46;;;;;;;6.25;3.87;;;;;;;15.65;99.10;99271.98;1695402;81;25806;-79
2021/08/06 00:30:13;;;;;;;5.00;3.40;;;;;;;15.66;98.94;99270.90;1722442;81;27434;-80
2021/08/06 00:32:40;;;;;;;4.08;3.67;;;;;;;15.68;99.35;99270.11;1714343;82;25875;-79
2021/08/06 00:35:09;;;;;;;4.05;3.30;;;;;;;15.69;99.47;99270.41;1754859;81;25915;-80
2021/08/06 00:37:37;;;;;;;4.47;3.80;;;;;;;15.69;99.72;99262.31;1675971;81;25813;-79
2021/08/06 00:40:06;;;;;;;4.08;3.67;;;;;;;15.70;100.00;99249.61;1708400;81;25756;-80
2021/08/06 00:42:35;;;;;;;4.85;3.42;;;;;;;15.70;99.60;99248.25;1721712;81;27586;-80
2021/08/06 00:45:04;;;;;;;3.95;3.37;;;;;;;15.71;99.79;99253.95;1721611;81;25889;-79
2021/08/06 00:47:34;;;;;;;4.83;3.42;;;;;;;15.70;99.84;99243.67;1694978;81;25775;-80
2021/08/06 00:50:03;;;;;;;5.37;3.42;;;;;;;15.70;99.66;99239.63;1702163;81;26566;-79
2021/08/06 00:52:31;;;;;;;7.40;3.85;;;;;;;15.71;100.00;99232.35;1691184;82;25963;-80
2021/08/06 00:55:02;;;;;;;3.40;2.95;;;;;;;15.70;100.00;99238.28;1756799;81;27481;-80
2021/08/06 00:57:31;;;;;;;5.15;3.22;;;;;;;15.71;100.00;99235.05;1717713;80;25895;-80
2021/08/06 01:00:00;;;;;;;5.60;3.83;;;;;;;15.69;100.00;99235.31;1718954;81;25977;-80
2021/08/06 01:02:35;;;;;;;5.55;3.75;;;;;;;15.70;100.00;99230.70;1691475;82;25912;-80
2021/08/06 01:05:08;;;;;;;3.80;2.83;;;;;;;15.69;100.00;99228.56;1740997;81;25894;-80
2021/08/06 01:08:08;;;;;;;3.35;3.05;;;;;;;15.69;100.00;99220.99;1727848;80;27545;-79
2021/08/06 01:10:59;;;;;;;4.55;3.12;;;;;;;15.67;100.00;99219.08;1753776;81;25784;-79
2021/08/06 01:13:41;;;;;;;3.25;2.90;;;;;;;15.65;100.00;99216.64;1714960;81;25785;-80
2021/08/06 01:16:12;;;;;;;5.22;3.45;;;;;;;15.65;100.00;99214.47;1746531;81;25784;-80
2021/08/06 01:18:52;;;;;;;2.70;2.50;;;;;;;15.63;100.00;99209.30;1715773;81;25951;-80
2021/08/06 01:21:21;;;;;;;3.22;2.83;;;;;;;15.63;100.00;99211.21;1722665;81;28382;-79
2021/08/06 01:23:51;;;;;;;3.70;2.90;;;;;;;15.61;100.00;99203.34;1676850;82;25328;-80
2021/08/06 01:26:21;;;;;;;3.20;2.42;;;;;;;15.61;100.00;99197.16;1712344;81;25911;-80
2021/08/06 01:28:51;;;;;;;1.98;1.87;;;;;;;15.59;100.00;99189.29;1745726;80;25824;-80
2021/08/06 01:31:27;;;;;;;5.60;2.98;;;;;;;15.59;100.00;99188.50;1739244;81;25849;-81
2021/08/06 01:33:57;;;;;;;4.37;3.02;;;;;;;15.58;100.00;99182.28;1681330;81;27408;-81
2021/08/06 01:36:25;;;;;;;3.08;2.58;;;;;;;15.59;100.00;99184.45;1734763;80;25837;-80
2021/08/06 01:38:54;;;;;;;6.35;2.47;;;;;;;15.58;100.00;99172.01;1752386;81;25807;-81
2021/08/06 01:41:34;;;;;;;3.40;2.33;;;;;;;15.56;100.00;99174.97;1719847;81;26629;-80
2021/08/06 01:44:22;;;;;;;2.85;2.45;;;;;;;15.58;100.00;99170.66;1715566;81;26671;-80
2021/08/06 01:47:00;;;;;;;4.75;2.52;;;;;;;15.57;100.00;99170.39;1737932;81;27474;-80
2021/08/06 01:49:33;;;;;;;3.27;2.42;;;;;;;15.56;100.00;99168.22;1705831;82;25833;-80
2021/08/06 01:52:05;;;;;;;2.55;2.35;;;;;;;15.56;100.00;99156.60;1718776;81;25825;-80
2021/08/06 01:54:34;;;;;;;2.65;2.25;;;;;;;15.54;100.00;99156.87;1721440;81;25789;-81
2021/08/06 01:57:04;;;;;;;3.12;2.80;;;;;;;15.52;100.00;99148.21;1716234;82;25765;-80
2021/08/06 01:59:32;;;;;;;2.37;2.10;;;;;;;15.52;100.00;99156.83;1715190;81;27605;-81
2021/08/06 02:02:01;;;;;;;2.25;2.05;;;;;;;15.52;100.00;99154.13;1763781;81;25763;-81
2021/08/06 02:04:30;;;;;;;5.08;2.08;;;;;;;15.51;100.00;99149.79;1731414;81;26142;-81
2021/08/06 02:07:02;;;;;;;2.45;2.00;;;;;;;15.51;100.00;99146.56;1714154;81;26440;-81
2021/08/06 02:09:30;;;;;;;2.40;2.15;;;;;;;15.51;100.00;99145.74;1688628;82;25797;-80
2021/08/06 02:11:57;;;;;;;5.37;2.15;;;;;;;15.51;100.00;99138.47;1751745;81;27612;-80
2021/08/06 02:14:26;;;;;;;4.53;2.15;;;;;;;15.49;100.00;99133.86;1697547;81;26222;-80
2021/08/06 02:16:54;;;;;;;3.00;1.90;;;;;;;15.47;100.00;99127.91;1717955;81;25739;-81
2021/08/06 02:19:25;;;;;;;1.80;1.70;;;;;;;15.46;100.00;99128.98;1714147;81;26665;-80
2021/08/06 02:21:57;;;;;;;3.30;1.57;;;;;;;15.46;100.00;99114.67;1688530;81;25858;-81
2021/08/06 02:24:29;;;;;;;3.12;1.82;;;;;;;15.44;100.00;99121.12;1739338;82;27526;-80
2021/08/06 02:26:57;;;;;;;2.72;1.62;;;;;;;15.43;100.00;99108.72;1716000;81;25844;-79
2021/08/06 02:29:29;;;;;;;1.85;1.72;;;;;;;15.42;100.00;99107.05;1722793;81;25348;-80
2021/08/06 02:31:59;;;;;;;2.33;2.02;;;;;;;15.40;100.00;99102.44;1699390;81;26570;-80
2021/08/06 02:34:28;;;;;;;1.85;1.65;;;;;;;15.41;100.00;99108.13;1762324;81;26477;-80
2021/08/06 02:36:55;;;;;;;2.08;1.57;;;;;;;15.41;100.00;99099.21;1718009;81;28267;-80
2021/08/06 02:39:25;;;;;;;1.55;1.45;;;;;;;15.40;100.00;99098.91;1677650;82;25874;-80
2021/08/06 02:41:57;;;;;;;2.83;1.42;;;;;;;15.40;100.00;99097.04;1749593;80;26475;-81
2021/08/06 02:44:24;;;;;;;4.17;1.67;;;;;;;15.37;100.00;99082.73;1758714;81;25965;-81
2021/08/06 02:46:51;;;;;;;1.40;1.30;;;;;;;15.37;100.00;99080.03;1720630;81;25931;-81
2021/08/06 02:49:18;;;;;;;1.65;1.55;;;;;;;15.35;100.00;99074.04;1715521;82;27648;-81
2021/08/06 02:51:46;;;;;;;1.55;1.45;;;;;;;15.36;100.00;99073.52;1690736;81;25899;-80
2021/08/06 02:54:13;;;;;;;2.17;1.98;;;;;;;15.34;100.00;99076.48;1737674;81;25942;-81
2021/08/06 02:56:40;;;;;;;1.80;1.52;;;;;;;15.32;100.00;99077.27;1700460;81;25805;-81
2021/08/06 02:59:07;;;;;;;1.65;1.40;;;;;;;15.31;100.00;99076.18;1748506;81;26590;-80
2021/08/06 03:01:35;;;;;;;4.12;1.40;;;;;;;15.32;100.00;99072.39;1695053;81;28254;-81
2021/08/06 03:04:02;;;;;;;1.30;1.20;;;;;;;15.31;100.00;99072.13;1740633;81;25813;-80
2021/08/06 03:06:30;;;;;;;1.50;1.35;;;;;;;15.30;100.00;99067.80;1718159;81;26259;-79
2021/08/06 03:08:57;;;;;;;4.65;1.50;;;;;;;15.28;100.00;99065.36;1704488;81;26420;-80
2021/08/06 03:11:25;;;;;;;2.17;1.67;;;;;;;15.27;100.00;99069.11;1690991;81;25866;-80
2021/08/06 03:13:52;;;;;;;2.75;1.40;;;;;;;15.25;100.00;99063.16;1758352;81;27575;-81
2021/08/06 03:16:20;;;;;;;2.12;1.60;;;;;;;15.23;100.00;99062.59;1717415;81;25734;-80
2021/08/06 03:18:48;;;;;;;3.37;1.50;;;;;;;15.20;100.00;99062.30;1710479;80;25882;-81
2021/08/06 03:21:15;;;;;;;1.75;1.42;;;;;;;15.18;100.00;99063.88;1682929;79;26481;-81
2021/08/06 03:23:42;;;;;;;3.65;1.70;;;;;;;15.17;100.00;99058.75;1748471;79;25790;-81
2021/08/06 03:26:11;;;;;;;1.35;1.25;;;;;;;15.15;100.00;99052.80;1715037;81;27443;-80
2021/08/06 03:28:39;;;;;;;1.50;1.40;;;;;;;15.15;100.00;99059.02;1660482;81;25861;-81
2021/08/06 03:31:07;;;;;;;4.15;1.60;;;;;;;15.13;100.00;99056.28;1710294;81;25957;-81
2021/08/06 03:33:35;;;;;;;3.83;1.72;;;;;;;15.11;100.00;99059.77;1740729;81;25843;-80
2021/08/06 03:36:03;;;;;;;3.30;1.70;;;;;;;15.12;100.00;99065.45;1717060;81;26480;-81
2021/08/06 03:38:31;;;;;;;1.95;1.80;;;;;;;15.10;100.00;99058.13;1720113;81;28613;-81
2021/08/06 03:41:03;;;;;;;4.45;1.60;;;;;;;15.08;100.00;99044.08;1697395;81;26118;-81
2021/08/06 03:43:30;;;;;;;2.08;1.50;;;;;;;15.07;100.00;99054.08;1728092;81;25614;-81
2021/08/06 03:45:57;;;;;;;2.12;1.32;;;;;;;15.06;100.00;99054.30;1768627;79;25812;-81
2021/08/06 03:48:25;;;;;;;2.22;1.42;;;;;;;15.05;100.00;99061.61;1678626;82;25426;-81
2021/08/06 03:50:52;;;;;;;1.65;1.52;;;;;;;15.04;100.00;99052.40;1697264;80;27490;-81
2021/08/06 03:53:19;;;;;;;3.08;1.20;;;;;;;15.03;100.00;99048.09;1747260;80;25919;-80
2021/08/06 03:55:47;;;;;;;1.60;1.35;;;;;;;15.02;100.00;99045.92;1720076;81;25804;-80
2021/08/06 03:58:15;;;;;;;4.40;1.47;;;;;;;15.04;100.00;99040.27;1680326;82;25996;-79
2021/08/06 04:00:42;;;;;;;2.12;1.25;;;;;;;15.01;100.00;99033.48;1696831;81;26333;-81
2021/08/06 04:03:09;;;;;;;2.45;1.52;;;;;;;15.00;100.00;99035.92;1762001;81;27040;-81
2021/08/06 04:05:37;;;;;;;1.40;1.30;;;;;;;14.98;100.00;99028.62;1716003;82;25793;-82
2021/08/06 04:08:07;;;;;;;2.90;1.25;;;;;;;14.98;100.00;99034.54;1716912;81;25886;-80
2021/08/06 04:10:37;;;;;;;1.35;1.12;;;;;;;14.96;100.00;99028.59;1671940;82;25817;-81
2021/08/06 04:13:04;;;;;;;1.67;1.40;;;;;;;14.94;100.00;99019.41;1727786;81;26180;-80
2021/08/06 04:15:32;;;;;;;2.10;1.30;;;;;;;14.94;100.00;99018.06;1704614;81;27651;-81
2021/08/06 04:17:59;;;;;;;3.05;1.30;;;;;;;14.93;100.00;99012.38;1722399;81;25789;-81
2021/08/06 04:20:26;;;;;;;3.58;1.15;;;;;;;14.93;100.00;99022.34;1687798;81;25815;-81
2021/08/06 04:22:54;;;;;;;2.20;1.47;;;;;;;14.92;100.00;99018.85;1759799;81;25867;-81
2021/08/06 04:25:21;;;;;;;1.40;1.30;;;;;;;14.91;100.00;99009.64;1714048;82;25328;-81
2021/08/06 04:27:49;;;;;;;4.10;2.40;;;;;;;14.91;100.00;99014.52;1695986;80;28289;-81
2021/08/06 04:30:16;;;;;;;1.75;1.10;;;;;;;14.90;100.00;99021.52;1709216;81;25906;-82
2021/08/06 04:32:43;;;;;;;1.40;1.10;;;;;;;14.91;100.00;99012.34;1737394;82;25780;-81
2021/08/06 04:35:12;;;;;;;1.17;1.07;;;;;;;14.90;100.00;99009.38;1702773;81;25964;-81
2021/08/06 04:37:47;;;;;;;7.53;1.22;;;;;;;14.89;100.00;99005.86;1699451;81;25865;-81
2021/08/06 04:40:14;;;;;;;1.57;1.22;;;;;;;14.89;100.00;99007.22;1695037;81;28280;-80
2021/08/06 04:42:41;;;;;;;1.60;1.27;;;;;;;14.87;100.00;98995.87;1739087;82;26544;-81
2021/08/06 04:45:10;;;;;;;1.42;1.00;;;;;;;14.86;100.00;99000.17;1730407;80;25710;-80
2021/08/06 04:47:47;;;;;;;0.78;0.78;;;;;;;14.86;100.00;98992.09;1713731;82;25969;-80
2021/08/06 04:50:17;;;;;;;0.80;0.80;;;;;;;14.83;100.00;98984.49;1710768;82;26055;-80
2021/08/06 04:52:45;;;;;;;2.37;1.07;;;;;;;14.82;100.00;98992.31;1731330;82;27516;-81
2021/08/06 04:55:12;;;;;;;3.10;1.40;;;;;;;14.80;100.00;98983.11;1719669;81;25994;-81
2021/08/06 04:57:41;;;;;;;1.25;1.02;;;;;;;14.80;100.00;98999.28;1715766;81;25856;-81
2021/08/06 05:00:09;;;;;;;1.10;1.00;;;;;;;14.80;100.00;98998.49;1688724;82;25939;-82
2021/08/06 05:02:36;;;;;;;1.10;1.00;;;;;;;14.79;100.00;98996.33;1719604;81;25838;-81
2021/08/06 05:05:04;;;;;;;1.20;1.10;;;;;;;14.79;100.00;98996.85;1690051;81;27564;-81
2021/08/06 05:07:31;;;;;;;1.65;0.90;;;;;;;14.79;100.00;98988.77;1676490;82;25766;-81
2021/08/06 05:09:58;;;;;;;1.30;1.10;;;;;;;14.77;100.00;98983.64;1719677;81;25840;-80
2021/08/06 05:12:25;;;;;;;1.00;0.90;;;;;;;14.78;100.00;98981.20;1735749;82;25807;-82
2021/08/06 05:14:53;;;;;;;1.20;0.80;;;;;;;14.78;100.00;98983.11;1731719;81;26223;-81
2021/08/06 05:17:20;;;;;;;2.90;1.07;;;;;;;14.76;100.00;98978.48;1723410;81;27461;-82
2021/08/06 05:19:47;;;;;;;1.40;0.80;;;;;;;14.75;100.00;98980.37;1697971;81;25557;-81
2021/08/06 05:22:14;;;;;;;0.70;0.70;;;;;;;14.74;100.00;98974.70;1753158;81;25601;-82
2021/08/06 05:24:42;;;;;;;0.80;0.80;;;;;;;14.73;100.00;98977.13;1715102;82;26468;-81
2021/08/06 05:27:09;;;;;;;0.68;0.68;;;;;;;14.71;100.00;98971.17;1731274;80;25755;-81
2021/08/06 05:29:36;;;;;;;1.77;0.98;;;;;;;14.71;100.00;98972.52;1694292;81;28254;-81
2021/08/06 05:32:04;;;;;;;1.20;1.10;;;;;;;14.69;100.00;98974.10;1751530;81;25895;-81
2021/08/06 05:34:31;;;;;;;1.25;0.78;;;;;;;14.71;100.00;98975.74;1714765;82;26003;-81
2021/08/06 05:36:58;;;;;;;1.67;1.12;;;;;;;14.70;100.00;98972.23;1706034;81;25917;-81
2021/08/06 05:39:25;;;;;;;0.80;0.80;;;;;;;14.69;100.00;98975.45;1690662;81;26318;-81
2021/08/06 05:41:52;;;;;;;0.80;0.80;;;;;;;14.69;100.00;98980.84;1750948;80;27631;-81
2021/08/06 05:44:19;;;;;;;1.37;0.90;;;;;;;14.69;100.00;98978.14;1710165;81;26649;-80
2021/08/06 05:46:46;;;;;;;1.87;1.07;;;;;;;14.70;100.00;98981.66;1689855;80;25824;-81
2021/08/06 05:49:13;;;;;;;1.42;0.90;;;;;;;14.68;100.00;98978.41;1716534;81;26527;-81
2021/08/06 05:51:40;;;;;;;1.50;0.93;;;;;;;14.68;100.00;98984.62;1719670;81;25784;-81
2021/08/06 05:54:07;;;;;;;2.75;0.90;;;;;;;14.66;100.00;98982.71;1753390;81;27645;-81
2021/08/06 05:56:34;;;;;;;1.07;0.95;;;;;;;14.67;100.00;98981.63;1677223;82;26552;-81
2021/08/06 05:59:01;;;;;;;1.30;1.00;;;;;;;14.67;100.00;98984.32;1699502;81;26568;-82
2021/08/06 06:01:28;;;;;;;1.12;0.80;;;;;;;14.67;100.00;98986.19;1716678;81;25822;-81
2021/08/06 06:03:57;;;;;;;0.95;0.93;;;;;;;14.66;100.00;98983.23;1756115;81;25815;-81
2021/08/06 06:06:26;;;;;;;1.10;0.93;;;;;;;14.66;100.00;98985.93;1720116;81;27042;-81
2021/08/06 06:08:53;;;;;;;4.35;1.15;;;;;;;14.66;100.00;98988.09;1709739;81;26333;-82
2021/08/06 06:11:20;;;;;;;0.95;0.85;;;;;;;14.66;100.00;98984.58;1712233;82;26491;-82
2021/08/06 06:13:48;;;;;;;4.28;1.15;;;;;;;14.66;100.00;98990.80;1720940;81;25926;-81
2021/08/06 06:16:15;;;;;;;0.80;0.70;;;;;;;14.66;100.00;98988.09;1706439;81;25856;-81
2021/08/06 06:18:42;;;;;;;0.70;0.70;;;;;;;14.66;100.00;98985.93;1691195;82;28169;-81
2021/08/06 06:21:10;;;;;;;0.70;0.70;;;;;;;14.66;100.00;98986.75;1718707;80;25786;-82
2021/08/06 06:23:38;;;;;;;1.07;0.80;;;;;;;14.65;100.00;98985.11;1724855;81;25288;-81
2021/08/06 06:26:06;;;;;;;0.72;0.72;;;;;;;14.64;100.00;98991.58;1708796;81;25976;-81
2021/08/06 06:28:34;;;;;;;1.55;0.60;;;;;;;14.63;100.00;98984.55;1717376;82;25528;-81
2021/08/06 06:31:02;;;;;;;1.87;0.98;;;;;;;14.63;100.00;98987.24;1717976;81;27459;-82
2021/08/06 06:33:30;;;;;;;1.10;0.70;;;;;;;14.64;100.00;99003.70;1759713;80;25749;-82
2021/08/06 06:35:58;;;;;;;0.85;0.70;;;;;;;14.63;100.00;98993.16;1741913;80;25929;-81
2021/08/06 06:38:26;;;;;;;1.00;0.90;;;;;;;14.62;100.00;98999.10;1727158;81;26416;-81
2021/08/06 06:40:53;;;;;;;1.17;0.90;;;;;;;14.62;100.00;99005.84;1712290;82;25893;-81
2021/08/06 06:43:22;;;;;;;1.20;0.62;;;;;;;14.62;100.00;99001.80;1759628;81;27782;-80
2021/08/06 06:45:49;;;;;;;2.67;0.90;;;;;;;14.63;100.00;99002.59;1701111;81;25929;-81
2021/08/06 06:48:17;;;;;;;1.07;1.00;;;;;;;14.62;100.00;99007.19;1724431;81;26049;-81
2021/08/06 06:50:44;;;;;;;2.20;0.72;;;;;;;14.63;100.00;98995.85;1677205;82;26538;-81
2021/08/06 06:53:11;;;;;;;1.05;0.98;;;;;;;14.64;100.00;98994.28;1748199;81;26048;-81
2021/08/06 06:55:38;;;;;;;1.47;0.80;;;;;;;14.66;100.00;98996.70;1701812;81;28205;-81
2021/08/06 06:58:05;;;;;;;1.07;0.78;;;;;;;14.67;100.00;99007.75;1705681;81;26026;-82
2021/08/06 07:00:33;;;;;;;0.70;0.70;;;;;;;14.69;100.00;98999.70;1721933;81;26613;-82
2021/08/06 07:03:02;;;;;;;3.23;0.93;;;;;;;14.69;100.00;99006.44;1713746;82;25780;-81
2021/08/06 07:05:30;;;;;;;0.80;0.80;;;;;;;14.71;100.00;99006.73;1722837;82;25361;-81
2021/08/06 07:07:57;;;;;;;0.82;0.82;;;;;;;14.72;100.00;99011.05;1724013;82;28307;-81
2021/08/06 07:10:24;;;;;;;0.88;0.70;;;;;;;14.75;100.00;99016.77;1730010;81;25824;-82
2021/08/06 07:12:51;;;;;;;1.50;0.90;;;;;;;14.77;100.00;99020.55;1729724;81;26123;-82
2021/08/06 07:15:18;;;;;;;0.80;0.80;;;;;;;14.78;100.00;99011.41;1728352;81;26221;-81
2021/08/06 07:17:47;;;;;;;0.95;0.78;;;;;;;14.77;100.00;99006.55;1711554;79;25822;-83
2021/08/06 07:20:17;;;;;;;0.82;0.80;;;;;;;14.78;100.00;99012.77;1719267;81;27472;-82
2021/08/06 07:22:46;;;;;;;1.02;0.72;;;;;;;14.80;100.00;99017.36;1737320;82;26577;-81
2021/08/06 07:25:16;;;;;;;0.62;0.62;;;;;;;14.81;100.00;99022.49;1693849;81;25792;-82
2021/08/06 07:27:45;;;;;;;1.52;0.60;;;;;;;14.80;100.00;99024.89;1751980;81;25880;-82
2021/08/06 07:30:14;;;;;;;1.32;0.75;;;;;;;14.79;100.00;99020.59;1718774;81;26555;-81
2021/08/06 07:32:42;;;;;;;1.47;0.98;;;;;;;14.79;100.00;99029.20;1769605;80;28101;-81
2021/08/06 07:35:11;;;;;;;2.12;0.60;;;;;;;14.79;100.00;99032.72;1719200;80;25796;-80
2021/08/06 07:37:41;;;;;;;0.62;0.47;;;;;;;14.78;100.00;99032.42;1708181;82;25321;-81
2021/08/06 07:40:12;;;;;;;0.77;0.50;;;;;;;14.76;100.00;99021.60;1725579;81;26426;-82
2021/08/06 07:42:39;;;;;;;0.72;0.62;;;;;;;14.75;100.00;99030.77;1775069;80;25810;-82
2021/08/06 07:45:09;;;;;;;1.00;0.50;;;;;;;14.74;100.00;99030.47;1746196;80;27315;-81
2021/08/06 07:47:36;;;;;;;1.20;0.80;;;;;;;14.72;100.00;99029.91;1710624;81;25875;-82
2021/08/06 07:50:04;;;;;;;1.57;1.02;;;;;;;14.69;100.00;99028.56;1711341;82;25852;-82
2021/08/06 07:52:32;;;;;;;0.90;0.60;;;;;;;14.68;100.00;99034.48;1720792;81;44847;-81
2021/08/06 07:54:59;;;;;;;1.30;0.88;;;;;;;14.68;100.00;99032.30;1699989;82;25740;-81
2021/08/06 07:57:27;;;;;;;1.98;0.70;;;;;;;14.67;100.00;99031.48;1718453;80;27496;-82
2021/08/06 07:59:54;;;;;;;0.82;0.60;;;;;;;14.67;100.00;99026.62;1699733;81;25833;-81
2021/08/06 08:02:21;;;;;;;0.93;0.70;;;;;;;14.66;100.00;99033.91;1742477;81;26027;-81
2021/08/06 08:04:48;;;;;;;2.30;0.68;;;;;;;14.66;100.00;99035.27;1714922;82;26421;-82
2021/08/06 08:07:16;;;;;;;1.15;0.80;;;;;;;14.67;100.00;99041.44;1706057;81;25919;-80
2021/08/06 08:09:43;;;;;;;0.82;0.80;;;;;;;14.65;100.00;99041.70;1703560;81;27607;-81
2021/08/06 08:12:10;;;;;;;2.27;0.70;;;;;;;14.68;100.00;99043.09;1762763;80;25828;-81
2021/08/06 08:14:38;;;;;;;1.35;0.60;;;;;;;14.69;100.00;99041.48;1677206;82;25628;-81
2021/08/06 08:17:06;;;;;;;1.17;0.68;;;;;;;14.69;100.00;99038.78;1693325;81;26335;-81
2021/08/06 08:19:33;;;;;;;0.75;0.60;;;;;;;14.70;100.00;99042.30;1717696;81;25869;-80
2021/08/06 08:22:01;;;;;;;1.67;0.60;;;;;;;14.71;100.00;99045.82;1760150;81;27476;-82
2021/08/06 08:24:29;;;;;;;1.25;0.70;;;;;;;14.70;100.00;99042.30;1690018;82;25882;-81
2021/08/06 08:26:56;;;;;;;0.47;0.47;;;;;;;14.67;100.00;99046.31;1693480;81;25881;-81
2021/08/06 08:29:23;;;;;;;0.78;0.70;;;;;;;14.66;100.00;99047.91;1698748;81;25887;-81
2021/08/06 08:31:50;;;;;;;0.68;0.68;;;;;;;14.67;100.00;99046.83;1759453;81;26577;-81
2021/08/06 08:34:17;;;;;;;1.05;0.60;;;;;;;14.68;100.00;99039.86;1672839;82;27590;-81
2021/08/06 08:36:44;;;;;;;1.07;0.62;;;;;;;14.70;100.00;99043.65;1706532;83;25837;-82
2021/08/06 08:39:11;;;;;;;1.25;0.70;;;;;;;14.71;100.00;99042.59;1707348;82;25813;-81
2021/08/06 08:41:39;;;;;;;2.87;1.05;;;;;;;14.75;100.00;99045.59;1776301;80;25792;-81
2021/08/06 08:44:06;;;;;;;3.17;0.80;;;;;;;14.77;100.00;99051.55;1677630;82;25316;-81
2021/08/06 08:46:34;;;;;;;0.50;0.50;;;;;;;14.77;100.00;99042.11;1678828;82;27461;-81
2021/08/06 08:49:02;;;;;;;3.05;0.90;;;;;;;14.76;100.00;99045.86;1722593;81;26650;-81
2021/08/06 08:51:31;;;;;;;0.68;0.68;;;;;;;14.73;100.00;99049.90;1743888;81;25772;-81
2021/08/06 08:54:01;;;;;;;0.55;0.55;;;;;;;14.73;100.00;99049.90;1744316;80;26491;-81
2021/08/06 08:56:31;;;;;;;0.50;0.40;;;;;;;14.74;100.00;99052.86;1700029;81;25683;-83
2021/08/06 08:58:59;;;;;;;0.40;0.40;;;;;;;14.74;100.00;99053.38;1699631;82;28322;-81
2021/08/06 09:01:27;;;;;;;0.53;0.40;;;;;;;14.70;100.00;99053.08;1750630;81;25936;-81
2021/08/06 09:03:56;;;;;;;0.40;0.40;;;;;;;14.69;100.00;99054.95;1721184;81;25892;-81
2021/08/06 09:06:42;;;;;;;0.50;0.50;;;;;;;14.69;100.00;99054.95;1696884;81;25880;-81
2021/08/06 09:09:15;;;;;;;0.40;0.40;;;;;;;14.69;100.00;99052.81;1698398;81;32538;-81
2021/08/06 09:11:44;;;;;;;1.65;0.50;;;;;;;14.71;100.00;99054.73;1743691;81;27594;-82
2021/08/06 09:14:26;;;;;;;0.60;0.60;;;;;;;14.72;100.00;99054.17;1698135;82;25842;-80
2021/08/06 09:17:01;;;;;;;0.70;0.70;;;;;;;14.69;100.00;99057.65;1757923;80;26615;-81
2021/08/06 09:19:33;;;;;;;0.78;0.60;;;;;;;14.69;100.00;99055.52;1712779;82;25967;-82
2021/08/06 09:22:22;;;;;;;1.98;0.68;;;;;;;14.66;100.00;99058.69;1702415;81;26003;-82
2021/08/06 09:25:17;;;;;;;1.42;0.60;;;;;;;14.66;100.00;99059.52;1759657;81;27493;-81
2021/08/06 09:27:49;;;;;;;1.10;0.70;;;;;;;14.65;100.00;99061.91;1760277;81;25334;-81
2021/08/06 09:30:33;;;;;;;0.67;0.67;;;;;;;14.67;100.00;99066.52;1707733;80;25852;-81
2021/08/06 09:33:01;;;;;;;0.60;0.60;;;;;;;14.67;100.00;99065.17;1727010;81;26137;-81
2021/08/06 09:35:32;;;;;;;0.93;0.53;;;;;;;14.67;100.00;99067.05;1737981;81;26248;-81
2021/08/06 09:38:00;;;;;;;1.22;0.50;;;;;;;14.66;100.00;99066.78;1756209;81;28219;-81
2021/08/06 09:40:32;;;;;;;1.00;0.60;;;;;;;14.64;100.00;99075.65;1691501;82;25844;-81
2021/08/06 09:43:05;;;;;;;0.50;0.50;;;;;;;14.60;100.00;99069.95;1672959;81;25826;-80
2021/08/06 09:45:41;;;;;;;1.52;0.42;;;;;;;14.60;100.00;99072.65;1768474;80;25792;-81
2021/08/06 09:48:09;;;;;;;1.20;0.50;;;;;;;14.60;100.00;99077.22;1747405;81;26569;-81
2021/08/06 09:50:43;;;;;;;0.45;0.45;;;;;;;14.59;100.00;99079.61;1688702;82;27506;-81
2021/08/06 09:53:11;;;;;;;1.47;0.60;;;;;;;14.58;100.00;99080.14;1738389;81;25415;-82
2021/08/06 09:55:48;;;;;;;1.25;0.60;;;;;;;14.57;100.00;99083.09;1753698;81;25611;-82
2021/08/06 09:58:22;;;;;;;0.42;0.42;;;;;;;14.57;100.00;99084.44;1745353;81;25802;-81
2021/08/06 10:00:52;;;;;;;1.07;0.50;;;;;;;14.54;100.00;99080.36;1698344;81;26737;-81
2021/08/06 10:03:32;;;;;;;2.58;0.60;;;;;;;14.55;100.00;99076.61;1695599;81;28285;-82
2021/08/06 10:06:13;;;;;;;0.40;0.37;;;;;;;14.55;100.00;99087.91;1754264;81;26543;-81
2021/08/06 10:08:41;;;;;;;0.80;0.70;;;;;;;14.54;100.00;99083.61;1738549;81;25725;-81
2021/08/06 10:11:09;;;;;;;0.80;0.53;;;;;;;14.53;100.00;99086.00;1696477;81;25912;-81
2021/08/06 10:13:37;;;;;;;0.72;0.60;;;;;;;14.55;100.00;99086.56;1675138;82;25625;-81
2021/08/06 10:16:05;;;;;;;1.47;0.40;;;;;;;14.55;100.00;99095.47;1738988;81;27580;-82
2021/08/06 10:18:33;;;;;;;0.50;0.50;;;;;;;14.55;100.00;99094.13;1736660;82;25872;-81
2021/08/06 10:21:00;;;;;;;0.60;0.40;;;;;;;14.53;100.00;99094.09;1682989;81;26462;-82
2021/08/06 10:23:27;;;;;;;1.07;0.78;;;;;;;14.52;100.00;99095.95;1705160;82;25754;-81
2021/08/06 10:25:55;;;;;;;0.50;0.50;;;;;;;14.49;100.00;99096.47;1760795;81;25767;-82
2021/08/06 10:28:23;;;;;;;1.65;0.60;;;;;;;14.47;100.00;99099.95;1714615;82;27648;-81
2021/08/06 10:30:50;;;;;;;0.40;0.40;;;;;;;14.47;100.00;99098.60;1691934;80;25920;-82
2021/08/06 10:33:22;;;;;;;0.40;0.40;;;;;;;14.45;100.00;99103.42;1704893;81;25916;-83
2021/08/06 10:36:02;;;;;;;0.93;0.42;;;;;;;14.44;100.00;99101.78;1754044;81;26741;-82
2021/08/06 10:38:42;;;;;;;1.02;0.47;;;;;;;14.43;100.00;99100.16;1778352;80;26147;-81
2021/08/06 10:41:13;;;;;;;0.33;0.33;;;;;;;14.44;100.00;99103.13;1723340;81;27486;-81
2021/08/06 10:43:44;;;;;;;0.98;0.50;;;;;;;14.45;100.00;99105.30;1677119;81;25795;-81
2021/08/06 10:46:12;;;;;;;1.15;0.40;;;;;;;14.44;100.00;99107.69;1755943;80;25374;-82
2021/08/06 10:48:43;;;;;;;0.40;0.40;;;;;;;14.42;100.00;99113.34;1756980;81;25892;-82
2021/08/06 10:51:21;;;;;;;0.30;0.30;;;;;;;14.41;100.00;99104.95;1691631;81;25923;-82
2021/08/06 10:53:58;;;;;;;0.68;0.30;;;;;;;14.40;100.00;99105.20;1720697;81;28259;-81
2021/08/06 10:56:32;;;;;;;0.50;0.40;;;;;;;14.39;100.00;99107.08;1736655;82;25872;-81
2021/08/06 10:59:12;;;;;;;0.45;0.45;;;;;;;14.37;100.00;99098.44;1758929;80;25313;-81
2021/08/06 11:01:46;;;;;;;0.47;0.40;;;;;;;14.36;100.00;99107.59;1694308;81;26779;-81
2021/08/06 11:04:21;;;;;;;0.47;0.40;;;;;;;14.37;100.00;99113.25;1688026;82;25869;-82
2021/08/06 11:06:55;;;;;;;0.78;0.53;;;;;;;14.37;100.00;99118.64;1749794;80;28294;-81
2021/08/06 11:09:30;;;;;;;0.42;0.40;;;;;;;14.36;100.00;99121.06;1741584;81;25733;-81
2021/08/06 11:12:12;;;;;;;3.95;0.50;;;;;;;14.35;100.00;99115.94;1743663;80;25953;-83
2021/08/06 11:14:46;;;;;;;0.37;0.30;;;;;;;14.34;100.00;99108.90;1697842;82;25825;-82
2021/08/06 11:17:24;;;;;;;0.50;0.50;;;;;;;14.33;100.00;99112.11;1726682;81;26699;-83
2021/08/06 11:20:07;;;;;;;0.50;0.50;;;;;;;14.34;100.00;99116.45;1771982;80;28156;-83
2021/08/06 11:22:38;;;;;;;0.40;0.40;;;;;;;14.35;100.00;99112.69;1725718;81;26491;-81
2021/08/06 11:25:24;;;;;;;0.70;0.30;;;;;;;14.33;100.00;99115.33;1715726;82;25987;-82
2021/08/06 11:28:00;;;;;;;0.25;0.20;;;;;;;14.33;100.00;99118.02;1752726;79;25888;-81
2021/08/06 11:30:35;;;;;;;0.30;0.20;;;;;;;14.33;100.00;99119.38;1756598;81;26022;-81
2021/08/06 11:33:08;;;;;;;0.90;0.40;;;;;;;14.33;100.00;99122.06;1689569;82;27488;-82
2021/08/06 11:35:44;;;;;;;0.30;0.30;;;;;;;14.33;100.00;99118.02;1668801;82;26664;-82
2021/08/06 11:38:14;;;;;;;0.25;0.25;;;;;;;14.32;100.00;99127.19;1763268;81;25836;-81